Time;durP1;ratioP1;P1;durP2;ratioP2;P2;SDS_P1;SDS_P2;PMS_P1;PMS_P2;Temp;Humidity;BMP_temperature;BMP_pressure;BME280_temperature;BME280_humidity;BME280_pressure;Samples;Min_cycle;Max_cycle;Signal;HPM_P1;HPM_P2
2022/04/14 00:00:14;;;;;;;;;21.50;18.00;;;;;15.82;68.45;101790.72;4997868;28;45486;-52
2022/04/14 00:02:40;;;;;;;;;18.75;18.50;;;;;15.80;68.33;101784.66;5001646;28;45477;-52
2022/04/14 00:05:07;;;;;;;;;21.50;18.75;;;;;15.79;68.56;101782.06;5002039;28;45793;-51
2022/04/14 00:07:32;;;;;;;;;14.50;14.50;;;;;15.75;68.71;101785.91;5001486;28;47147;-53
2022/04/14 00:09:58;;;;;;;;;19.75;18.50;;;;;15.69;68.90;101791.59;5001145;28;45471;-53
2022/04/14 00:12:23;;;;;;;;;23.50;16.25;;;;;15.63;68.75;101792.84;5001554;28;45390;-52
2022/04/14 00:14:49;;;;;;;;;22.00;18.50;;;;;15.59;68.98;101788.66;5001543;28;45362;-50
2022/04/14 00:17:15;;;;;;;;;20.25;16.75;;;;;15.57;68.93;101790.56;5000104;28;45616;-50
2022/04/14 00:19:41;;;;;;;;;14.75;14.25;;;;;15.56;69.07;101786.16;5001227;28;45438;-52
2022/04/14 00:22:07;;;;;;;;;20.75;16.00;;;;;15.55;69.16;101792.44;5001628;28;45445;-52
2022/04/14 00:24:32;;;;;;;;;17.25;17.00;;;;;15.52;69.03;101785.53;5001239;28;45431;-53
2022/04/14 00:26:58;;;;;;;;;25.50;18.00;;;;;15.51;69.08;101791.78;5001420;28;46007;-50
2022/04/14 00:29:23;;;;;;;;;22.50;16.50;;;;;15.50;69.15;101791.88;4999509;28;45360;-53
2022/04/14 00:31:49;;;;;;;;;21.75;16.00;;;;;15.48;69.35;101791.09;5001268;28;45349;-51
2022/04/14 00:34:14;;;;;;;;;26.75;17.50;;;;;15.46;69.58;101788.56;5001391;28;45247;-51
2022/04/14 00:36:40;;;;;;;;;26.75;18.75;;;;;15.42;69.50;101791.53;5001179;28;46367;-53
2022/04/14 00:39:05;;;;;;;;;15.50;15.00;;;;;15.40;69.41;101785.44;5000966;28;45452;-53
2022/04/14 00:41:31;;;;;;;;;19.50;17.00;;;;;15.38;69.54;101782.88;5001121;28;45378;-55
2022/04/14 00:43:56;;;;;;;;;16.75;15.75;;;;;15.35;69.60;101773.31;5001235;28;45557;-52
2022/04/14 00:46:22;;;;;;;;;15.25;15.00;;;;;15.32;69.99;101777.94;5000943;28;46221;-49
2022/04/14 00:48:52;;;;;;;;;15.50;13.75;;;;;15.26;70.15;101778.34;5001223;28;45353;-48
2022/04/14 00:51:18;;;;;;;;;22.25;17.00;;;;;15.24;69.78;101781.06;4999159;28;45409;-50
2022/04/14 00:53:43;;;;;;;;;18.50;15.75;;;;;15.23;70.22;101784.69;5000804;28;45397;-48
2022/04/14 00:56:09;;;;;;;;;16.25;14.75;;;;;15.23;69.87;101782.03;5000896;28;45913;-51
2022/04/14 00:58:35;;;;;;;;;19.75;15.00;;;;;15.25;70.01;101784.63;4997119;28;45684;-53
2022/04/14 01:01:03;;;;;;;;;18.50;14.00;;;;;15.25;69.74;101784.63;4999509;28;45514;-52
2022/04/14 01:03:28;;;;;;;;;15.75;14.75;;;;;15.23;69.83;101789.13;5001004;28;45430;-53
2022/04/14 01:05:55;;;;;;;;;21.50;18.25;;;;;15.19;69.66;101785.84;5000777;28;46315;-51
2022/04/14 01:08:22;;;;;;;;;12.75;11.75;;;;;15.18;70.01;101789.44;5000131;28;45479;-52
2022/04/14 01:10:50;;;;;;;;;18.00;15.75;;;;;15.18;70.20;101789.44;5000963;28;45528;-49
2022/04/14 01:13:18;;;;;;;;;18.50;14.50;;;;;15.15;70.32;101791.41;4998428;28;45454;-53
2022/04/14 01:15:44;;;;;;;;;19.00;16.75;;;;;15.13;70.49;101793.31;5000388;28;45463;-53
2022/04/14 01:18:10;;;;;;;;;18.00;16.50;;;;;15.11;70.51;101788.13;4998123;28;45255;-48
2022/04/14 01:20:36;;;;;;;;;21.25;17.00;;;;;15.13;70.30;101791.50;5000827;28;45283;-49
2022/04/14 01:23:03;;;;;;;;;17.25;14.50;;;;;15.12;70.17;101795.13;5000581;28;45252;-50
2022/04/14 01:25:32;;;;;;;;;18.00;16.50;;;;;15.12;70.52;101792.47;5000268;28;45855;-51
2022/04/14 01:27:58;;;;;;;;;19.25;16.75;;;;;15.12;70.55;101792.47;4997810;28;45480;-52
2022/04/14 01:30:24;;;;;;;;;24.50;18.25;;;;;15.08;70.54;101788.28;5000518;28;45379;-49
2022/04/14 01:32:49;;;;;;;;;18.00;18.00;;;;;15.08;70.57;101790.94;5000529;28;45345;-48
2022/04/14 01:35:16;;;;;;;;;22.25;19.25;;;;;15.06;70.67;101790.19;4998334;28;46360;-48
2022/04/14 01:37:41;;;;;;;;;18.25;18.25;;;;;15.06;70.66;101795.50;5000302;28;45693;-52
2022/04/14 01:40:10;;;;;;;;;24.25;21.50;;;;;15.06;70.61;101798.16;5000372;28;45431;-50
2022/04/14 01:42:35;;;;;;;;;17.00;15.75;;;;;15.07;70.66;101797.19;4998616;28;45449;-49
2022/04/14 01:45:01;;;;;;;;;21.25;18.00;;;;;15.08;70.93;101793.59;5000202;28;46202;-52
2022/04/14 01:47:27;;;;;;;;;25.50;21.25;;;;;15.08;70.78;101794.44;4999889;28;45749;-49
2022/04/14 01:49:53;;;;;;;;;28.00;23.50;;;;;15.10;70.71;101790.88;4999732;28;45368;-49
2022/04/14 01:52:18;;;;;;;;;21.50;20.25;;;;;15.06;71.15;101796.34;4995628;28;45402;-52
2022/04/14 01:54:44;;;;;;;;;25.50;22.50;;;;;15.06;70.97;101793.69;4981215;28;46258;-53
2022/04/14 01:57:09;;;;;;;;;21.25;20.00;;;;;15.04;70.85;101790.28;4997791;28;45237;-52
2022/04/14 01:59:36;;;;;;;;;21.75;19.75;;;;;15.01;71.17;101787.84;4986861;28;45439;-51
2022/04/14 02:02:03;;;;;;;;;29.50;24.75;;;;;14.99;71.13;101787.03;4979112;28;45794;-51
2022/04/14 02:04:29;;;;;;;;;24.25;21.00;;;;;14.98;71.16;101789.81;5000129;28;46550;-48
2022/04/14 02:06:54;;;;;;;;;22.00;20.75;;;;;14.98;70.91;101781.84;5000074;28;45274;-48
2022/04/14 02:09:20;;;;;;;;;19.50;18.00;;;;;14.98;71.01;101788.00;4999393;28;45369;-50
2022/04/14 02:11:45;;;;;;;;;22.50;20.50;;;;;14.99;70.82;101788.84;5000214;28;45441;-49
2022/04/14 02:14:11;;;;;;;;;20.75;19.00;;;;;14.97;71.09;101786.28;4999845;28;45468;-51
2022/04/14 02:16:36;;;;;;;;;24.50;21.50;;;;;14.93;71.20;101789.22;4997734;28;45229;-48
2022/04/14 02:19:02;;;;;;;;;20.00;20.00;;;;;14.87;71.17;101790.47;5000110;28;45376;-50
2022/04/14 02:21:27;;;;;;;;;22.00;19.75;;;;;14.83;71.23;101788.06;5000342;28;45495;-51
2022/04/14 02:23:53;;;;;;;;;26.00;20.50;;;;;14.80;71.29;101783.81;4999639;28;45888;-49
2022/04/14 02:26:19;;;;;;;;;20.75;20.75;;;;;14.80;71.61;101778.50;5000083;28;45298;-47
2022/04/14 02:28:45;;;;;;;;;29.50;22.25;;;;;14.79;71.30;101785.63;4999823;28;45496;-49
2022/04/14 02:31:10;;;;;;;;;22.50;19.75;;;;;14.77;71.56;101779.56;4999839;28;45531;-49
2022/04/14 02:33:36;;;;;;;;;24.00;20.75;;;;;14.76;71.57;101777.81;4999764;28;46484;-49
2022/04/14 02:36:02;;;;;;;;;23.50;20.25;;;;;14.76;71.88;101779.63;4998165;28;45393;-49
2022/04/14 02:38:27;;;;;;;;;22.00;21.00;;;;;14.74;71.65;101785.03;4999694;28;45396;-53
2022/04/14 02:40:53;;;;;;;;;24.00;21.75;;;;;14.74;71.63;101782.38;4999894;28;45541;-49
2022/04/14 02:43:18;;;;;;;;;24.50;22.00;;;;;14.75;71.82;101788.53;4999725;28;45547;-53
2022/04/14 02:45:44;;;;;;;;;25.50;20.75;;;;;14.77;71.71;101792.81;4999568;28;45551;-54
2022/04/14 02:48:09;;;;;;;;;26.00;22.50;;;;;14.77;71.56;101798.13;4999866;28;45586;-52
2022/04/14 02:50:36;;;;;;;;;25.25;24.00;;;;;14.76;71.88;101799.03;4999895;28;45396;-52
2022/04/14 02:53:02;;;;;;;;;22.00;21.75;;;;;14.75;71.78;101794.69;4999362;28;46225;-51
2022/04/14 02:55:27;;;;;;;;;35.50;26.50;;;;;14.76;71.89;101798.19;4999726;28;45243;-52
2022/04/14 02:57:53;;;;;;;;;32.00;25.25;;;;;14.76;71.64;101793.75;4998201;28;45473;-52
2022/04/14 03:00:18;;;;;;;;;25.25;22.25;;;;;14.76;71.66;101790.25;4999599;28;45156;-51
2022/04/14 03:02:44;;;;;;;;;26.50;21.50;;;;;14.73;71.95;101790.44;5002738;28;45365;-52
2022/04/14 03:05:10;;;;;;;;;24.50;24.50;;;;;14.69;71.64;101791.53;5002913;28;45404;-52
2022/04/14 03:07:36;;;;;;;;;24.00;22.25;;;;;14.65;72.06;101798.00;5003022;28;45309;-52
2022/04/14 03:10:03;;;;;;;;;26.50;25.75;;;;;14.62;72.25;101811.44;5001988;28;45196;-47
2022/04/14 03:12:49;;;;;;;;;30.75;28.75;;;;;14.60;72.14;101808.84;5001071;28;45440;-51
2022/04/14 03:15:15;;;;;;;;;31.25;28.25;;;;;14.60;71.87;101810.66;5002272;28;45302;-52
2022/04/14 03:17:40;;;;;;;;;34.00;32.25;;;;;14.59;72.04;101801.00;4983038;28;45314;-51
2022/04/14 03:20:06;;;;;;;;;34.00;29.00;;;;;14.57;71.95;101801.09;5002627;28;45328;-48
2022/04/14 03:22:35;;;;;;;;;28.75;28.50;;;;;14.57;72.03;101795.78;5002092;28;46122;-52
2022/04/14 03:25:06;;;;;;;;;34.50;26.75;;;;;14.58;72.23;101797.50;5002323;28;45432;-52
2022/04/14 03:27:32;;;;;;;;;29.50;24.00;;;;;14.60;72.23;101803.56;5002151;28;45467;-49
2022/04/14 03:29:58;;;;;;;;;26.75;24.00;;;;;14.61;72.19;101799.09;5001995;28;45491;-53
2022/04/14 03:32:24;;;;;;;;;24.25;21.50;;;;;14.62;72.02;101807.00;5002262;28;46194;-51
2022/04/14 03:34:50;;;;;;;;;29.25;25.25;;;;;14.60;72.17;101803.56;5002590;28;45305;-49
2022/04/14 03:37:16;;;;;;;;;23.00;22.75;;;;;14.61;71.99;101815.00;5002526;28;45335;-51
2022/04/14 03:39:41;;;;;;;;;26.25;24.25;;;;;14.56;72.24;101810.00;5002344;28;45290;-49
2022/04/14 03:42:07;;;;;;;;;30.00;28.00;;;;;14.52;72.14;101813.75;5002163;28;46174;-51
2022/04/14 03:44:33;;;;;;;;;28.50;26.75;;;;;14.51;72.37;101815.56;5002406;28;45450;-48
2022/04/14 03:46:58;;;;;;;;;26.50;25.50;;;;;14.52;72.39;101821.72;5002484;28;45441;-48
2022/04/14 03:49:24;;;;;;;;;26.25;24.00;;;;;14.54;72.17;101819.00;5002255;28;45259;-49
2022/04/14 03:51:49;;;;;;;;;27.00;24.00;;;;;14.53;71.92;101826.06;5002162;28;46144;-49
2022/04/14 03:54:14;;;;;;;;;32.00;25.75;;;;;14.52;72.15;101824.38;5000648;28;45325;-50
2022/04/14 03:56:40;;;;;;;;;26.00;23.50;;;;;14.50;71.92;101819.16;5002398;28;45405;-51
2022/04/14 03:59:05;;;;;;;;;26.00;23.75;;;;;14.46;72.00;101817.66;5000282;28;45503;-51
2022/04/14 04:01:31;;;;;;;;;23.75;23.00;;;;;14.45;72.14;101815.03;5001872;28;45473;-48
2022/04/14 04:03:56;;;;;;;;;29.00;25.75;;;;;14.45;72.19;101818.56;4999929;28;45378;-50
2022/04/14 04:06:22;;;;;;;;;31.25;25.75;;;;;14.42;72.14;101816.06;5002209;28;45312;-50
2022/04/14 04:08:47;;;;;;;;;33.00;27.00;;;;;14.43;72.41;101816.91;5001158;28;45240;-49
2022/04/14 04:11:13;;;;;;;;;27.75;25.00;;;;;14.44;72.22;101808.88;5001441;28;45696;-49
2022/04/14 04:13:38;;;;;;;;;29.50;28.00;;;;;14.46;72.04;101808.84;5000843;28;45245;-52
2022/04/14 04:16:04;;;;;;;;;28.00;24.50;;;;;14.41;72.32;101805.56;5002025;28;45339;-53
2022/04/14 04:18:31;;;;;;;;;24.00;23.00;;;;;14.36;72.17;101811.13;5001511;28;45191;-52
2022/04/14 04:20:56;;;;;;;;;33.00;26.75;;;;;14.31;72.40;101810.56;5001799;28;46205;-48
2022/04/14 04:23:22;;;;;;;;;28.00;25.25;;;;;14.27;72.35;101816.09;5001873;28;45227;-50
2022/04/14 04:25:49;;;;;;;;;30.00;27.50;;;;;14.22;72.38;101808.44;5002074;28;45414;-52
2022/04/14 04:28:15;;;;;;;;;24.75;22.00;;;;;14.19;72.55;101808.59;5001532;28;45452;-49
2022/04/14 04:30:40;;;;;;;;;27.25;22.50;;;;;14.17;72.68;101821.94;5001258;28;45472;-49
2022/04/14 04:33:06;;;;;;;;;26.00;23.25;;;;;14.12;72.61;101815.19;5001647;28;45478;-49
2022/04/14 04:35:31;;;;;;;;;29.75;24.75;;;;;14.10;72.45;101815.28;5001876;28;45380;-49
2022/04/14 04:37:57;;;;;;;;;29.00;26.75;;;;;14.11;72.76;101824.94;5001865;28;45659;-49
2022/04/14 04:40:22;;;;;;;;;32.00;25.00;;;;;14.12;72.75;101823.97;5001568;28;45444;-54
2022/04/14 04:42:48;;;;;;;;;34.75;26.25;;;;;14.11;72.45;101824.06;5001382;28;45469;-50
2022/04/14 04:45:13;;;;;;;;;32.75;26.00;;;;;14.08;72.35;101841.00;5001641;28;45408;-53
2022/04/14 04:47:39;;;;;;;;;27.75;27.75;;;;;14.08;72.86;101842.81;5001467;28;45465;-53
2022/04/14 04:50:07;;;;;;;;;30.25;27.25;;;;;14.05;72.71;101846.47;5001304;28;46183;-52
2022/04/14 04:52:36;;;;;;;;;29.50;25.25;;;;;14.05;72.97;101853.56;4997834;28;45237;-52
2022/04/14 04:55:02;;;;;;;;;28.00;25.00;;;;;14.04;73.25;101843.91;4999121;28;45409;-52
2022/04/14 04:57:28;;;;;;;;;21.75;20.00;;;;;14.05;73.18;101849.09;5001559;28;45385;-54
2022/04/14 04:59:53;;;;;;;;;31.75;27.50;;;;;14.07;72.84;101849.06;5000924;28;45222;-52
2022/04/14 05:02:19;;;;;;;;;28.75;27.00;;;;;14.07;72.85;101851.69;5001203;28;45481;-54
2022/04/14 05:04:44;;;;;;;;;30.75;26.75;;;;;14.07;72.90;101847.25;5001376;28;45291;-51
2022/04/14 05:07:09;;;;;;;;;26.50;21.75;;;;;14.09;72.86;101853.31;5001478;28;45226;-53
2022/04/14 05:09:35;;;;;;;;;22.25;18.25;;;;;14.08;72.83;101843.66;4999798;28;45463;-51
2022/04/14 05:12:00;;;;;;;;;23.75;22.25;;;;;14.09;72.76;101841.88;5000575;28;45317;-54
2022/04/14 05:14:26;;;;;;;;;31.25;25.00;;;;;14.08;72.60;101840.16;5001850;28;45377;-54
2022/04/14 05:16:52;;;;;;;;;25.50;24.00;;;;;14.02;72.57;101841.34;4999213;28;45485;-51
2022/04/14 05:19:17;;;;;;;;;31.25;28.25;;;;;13.96;72.62;101853.13;5001599;28;46209;-52
2022/04/14 05:21:42;;;;;;;;;25.50;23.25;;;;;13.90;72.69;101852.59;5001234;28;45324;-54
2022/04/14 05:24:08;;;;;;;;;31.50;28.50;;;;;13.88;72.89;101850.06;5000927;28;45507;-49
2022/04/14 05:26:34;;;;;;;;;33.00;27.25;;;;;13.90;72.86;101852.59;5001436;28;45444;-54
2022/04/14 05:28:59;;;;;;;;;32.00;28.25;;;;;13.91;72.90;101849.06;5001162;28;45626;-50
2022/04/14 05:31:25;;;;;;;;;27.75;26.00;;;;;13.89;72.86;101862.34;4998076;28;45464;-51
2022/04/14 05:33:50;;;;;;;;;25.25;23.50;;;;;13.90;72.86;101864.09;5000033;28;45373;-54
2022/04/14 05:36:16;;;;;;;;;30.75;24.25;;;;;13.90;72.88;101871.16;5000729;28;45290;-52
2022/04/14 05:38:41;;;;;;;;;39.00;30.00;;;;;13.90;73.09;101874.69;4991527;28;46054;-50
2022/04/14 05:41:08;;;;;;;;;25.50;23.25;;;;;13.91;73.10;101879.03;4999694;28;45424;-52
2022/04/14 05:43:33;;;;;;;;;24.25;22.25;;;;;13.96;72.94;101870.81;5000579;28;45171;-54
2022/04/14 05:45:59;;;;;;;;;32.50;26.75;;;;;14.02;73.03;101872.28;5000708;28;45235;-53
2022/04/14 05:48:25;;;;;;;;;34.00;27.75;;;;;14.06;72.93;101871.16;5000386;28;45285;-53
2022/04/14 05:50:51;;;;;;;;;39.50;32.00;;;;;14.11;72.96;101879.72;5000468;28;45269;-51
2022/04/14 05:53:17;;;;;;;;;31.00;30.50;;;;;14.20;73.23;101879.19;5000481;28;45368;-54
2022/04/14 05:55:47;;;;;;;;;30.25;23.50;;;;;14.33;72.68;101879.38;5000228;28;45393;-51
2022/04/14 05:58:12;;;;;;;;;35.50;30.50;;;;;14.45;72.77;101881.31;4994522;28;46525;-53
2022/04/14 06:00:39;;;;;;;;;33.25;30.25;;;;;14.60;72.51;101876.94;4999987;28;45459;-52
2022/04/14 06:03:04;;;;;;;;;36.00;29.25;;;;;14.72;71.92;101871.81;5000205;28;45436;-53
2022/04/14 06:05:31;;;;;;;;;32.50;30.50;;;;;14.87;72.02;101877.16;5000525;28;45542;-50
2022/04/14 06:07:57;;;;;;;;;26.25;26.25;;;;;14.98;71.70;101877.38;5000144;28;46268;-50
2022/04/14 06:10:23;;;;;;;;;37.00;27.50;;;;;15.11;71.34;101877.50;4999802;28;45430;-49
2022/04/14 06:12:49;;;;;;;;;33.75;30.25;;;;;15.21;71.20;101876.84;5000082;28;45307;-50
2022/04/14 06:15:18;;;;;;;;;36.00;32.50;;;;;15.30;70.96;101892.19;5000488;28;45563;-52
2022/04/14 06:17:44;;;;;;;;;43.50;33.25;;;;;15.39;70.45;101893.44;4999095;28;45473;-50
2022/04/14 06:20:11;;;;;;;;;51.00;40.50;;;;;15.44;70.43;101899.34;5000272;28;45254;-52
2022/04/14 06:22:41;;;;;;;;;35.50;32.00;;;;;15.50;70.03;101901.63;4996141;28;45768;-54
2022/04/14 06:25:12;;;;;;;;;34.50;29.25;;;;;15.58;70.03;101909.97;4986791;28;45450;-53
2022/04/14 06:27:42;;;;;;;;;32.75;29.75;;;;;15.67;69.78;101905.91;5000252;28;45550;-50
2022/04/14 06:30:09;;;;;;;;;34.50;29.00;;;;;15.68;69.61;101915.59;5000318;28;45365;-51
2022/04/14 06:32:35;;;;;;;;;34.50;30.50;;;;;15.59;69.27;101911.69;4999934;28;45214;-49
2022/04/14 06:35:00;;;;;;;;;33.75;31.25;;;;;15.49;69.27;101912.34;5001564;28;45378;-53
2022/04/14 06:37:26;;;;;;;;;31.75;29.50;;;;;15.39;69.59;101914.69;5003618;28;46550;-52
2022/04/14 06:39:51;;;;;;;;;38.00;32.50;;;;;15.32;69.74;101921.31;5003668;28;45316;-51
2022/04/14 06:42:21;;;;;;;;;32.50;29.50;;;;;15.27;69.89;101920.75;5003500;28;45271;-50
2022/04/14 06:44:46;;;;;;;;;29.00;25.75;;;;;15.24;69.99;101926.22;5003475;28;45800;-52
2022/04/14 06:47:11;;;;;;;;;42.50;32.00;;;;;15.25;69.98;101930.63;5003432;28;45297;-53
2022/04/14 06:49:37;;;;;;;;;36.00;31.75;;;;;15.27;70.33;101926.91;5003678;28;45340;-53
2022/04/14 06:52:03;;;;;;;;;37.75;31.75;;;;;15.32;69.83;101924.84;5003653;28;45446;-52
2022/04/14 06:54:28;;;;;;;;;37.25;33.00;;;;;15.36;69.85;101922.84;5003225;28;45629;-53
2022/04/14 06:56:54;;;;;;;;;39.00;34.50;;;;;15.39;70.06;101927.94;5003002;28;45199;-53
2022/04/14 06:59:19;;;;;;;;;29.50;25.75;;;;;15.43;69.95;101934.81;5003310;28;45249;-53
2022/04/14 07:01:44;;;;;;;;;47.25;35.75;;;;;15.50;69.71;101936.16;5003268;28;45525;-54
2022/04/14 07:04:10;;;;;;;;;39.25;33.50;;;;;15.54;69.45;101926.16;5003520;28;45431;-50
2022/04/14 07:06:36;;;;;;;;;41.75;35.25;;;;;15.56;69.35;101935.78;5001788;28;46329;-53
2022/04/14 07:09:01;;;;;;;;;41.75;35.25;;;;;15.56;69.42;101934.88;5000834;28;45364;-52
2022/04/14 07:11:27;;;;;;;;;37.75;32.50;;;;;15.54;69.73;101928.81;5002689;28;45340;-51
2022/04/14 07:13:52;;;;;;;;;35.25;32.00;;;;;15.58;69.41;101933.03;5002765;28;45317;-49
2022/04/14 07:16:18;;;;;;;;;32.50;31.25;;;;;15.60;69.30;101931.13;5002114;28;45327;-50
2022/04/14 07:18:43;;;;;;;;;38.50;31.50;;;;;15.60;69.26;101933.78;5000795;28;45322;-53
2022/04/14 07:21:09;;;;;;;;;22.00;16.25;;;;;15.61;69.50;101940.81;5002254;28;45313;-54
2022/04/14 07:23:34;;;;;;;;;43.25;32.00;;;;;15.65;69.33;101934.38;5002487;28;45567;-50
2022/04/14 07:26:00;;;;;;;;;35.50;32.25;;;;;15.64;69.46;101935.34;5002231;28;45428;-51
2022/04/14 07:28:25;;;;;;;;;37.25;31.25;;;;;15.61;69.41;101938.16;5001992;28;45404;-49
2022/04/14 07:30:50;;;;;;;;;37.50;31.50;;;;;15.56;69.38;101937.56;5001917;28;46687;-52
2022/04/14 07:33:16;;;;;;;;;37.00;30.75;;;;;15.54;69.20;101942.97;5002314;28;45527;-49
2022/04/14 07:35:41;;;;;;;;;30.00;27.75;;;;;15.51;69.10;101951.13;5002321;28;46348;-49
2022/04/14 07:38:07;;;;;;;;;37.25;30.50;;;;;15.50;69.41;101946.75;5002142;28;45525;-55
2022/04/14 07:40:33;;;;;;;;;34.25;32.00;;;;;15.49;69.49;101947.72;5002109;28;45502;-53
2022/04/14 07:42:58;;;;;;;;;30.75;26.00;;;;;15.51;68.93;101951.13;5002011;28;45450;-50
2022/04/14 07:45:24;;;;;;;;;34.75;27.00;;;;;15.50;68.85;101957.38;5001893;28;45426;-53
2022/04/14 07:47:50;;;;;;;;;32.50;27.50;;;;;15.60;69.07;101950.56;5001197;28;45429;-51
2022/04/14 07:50:19;;;;;;;;;31.00;27.00;;;;;15.69;68.80;101953.63;5001864;28;45444;-50
2022/04/14 07:52:51;;;;;;;;;26.50;25.25;;;;;15.79;68.72;101960.09;4999479;28;45479;-51
2022/04/14 07:55:31;;;;;;;;;28.00;25.00;;;;;15.88;67.76;101957.72;5001588;28;46306;-51
2022/04/14 07:57:58;;;;;;;;;;;;;;;15.94;67.86;101956.47;5003951;28;45369;-52
2022/04/14 08:00:25;;;;;;;;;27.50;25.00;;;;;16.03;67.71;101957.69;5002024;28;45376;-51
2022/04/14 08:02:56;;;;;;;;;25.25;20.50;;;;;16.12;67.26;101959.81;5001905;28;45166;-53
2022/04/14 08:05:33;;;;;;;;;26.25;22.75;;;;;16.21;66.89;101963.69;5001167;28;45476;-53
2022/04/14 08:08:00;;;;;;;;;18.25;17.25;;;;;16.29;66.23;101956.94;5001626;28;45306;-53
2022/04/14 08:10:26;;;;;;;;;24.00;22.00;;;;;16.35;65.89;101958.31;5000432;28;45455;-53
2022/04/14 08:12:51;;;;;;;;;22.75;19.50;;;;;16.41;65.98;101957.94;4999839;28;45504;-53
2022/04/14 08:15:17;;;;;;;;;28.00;22.25;;;;;16.47;65.69;101963.72;4996820;28;47201;-54
2022/04/14 08:17:43;;;;;;;;;27.75;24.00;;;;;16.53;65.67;101958.97;5001327;28;45673;-52
2022/04/14 08:20:11;;;;;;;;;27.25;24.00;;;;;16.58;65.44;101960.34;5001076;28;45388;-53
2022/04/14 08:22:54;;;;;;;;;29.75;23.00;;;;;16.64;65.81;101962.63;5001613;28;45409;-51
2022/04/14 08:25:22;;;;;;;;;30.25;26.00;;;;;16.71;65.23;101968.44;5001314;28;46078;-52
2022/04/14 08:27:49;;;;;;;;;26.00;22.75;;;;;16.77;64.85;101962.72;5001272;28;45492;-52
2022/04/14 08:30:17;;;;;;;;;27.25;25.00;;;;;16.83;65.19;101964.97;5001344;28;45517;-49
2022/04/14 08:32:43;;;;;;;;;33.50;27.50;;;;;16.87;64.48;101955.81;4999021;28;45198;-54
2022/04/14 08:35:09;;;;;;;;;30.50;27.00;;;;;16.94;64.85;101962.44;5001333;28;45530;-50
2022/04/14 08:37:35;;;;;;;;;29.25;24.75;;;;;16.99;64.33;101964.81;5001570;28;45266;-53
2022/04/14 08:40:01;;;;;;;;;28.00;25.50;;;;;17.09;64.27;101970.38;5001549;28;45391;-56
2022/04/14 08:42:34;;;;;;;;;27.00;24.75;;;;;17.14;63.74;101963.78;5001006;28;45254;-50
2022/04/14 08:45:05;;;;;;;;;29.00;26.00;;;;;17.22;64.38;101963.25;4997378;28;45404;-50
2022/04/14 08:47:34;;;;;;;;;29.50;28.25;;;;;17.31;63.97;101967.97;4999632;28;45189;-53
2022/04/14 08:50:00;;;;;;;;;27.00;24.50;;;;;17.40;63.42;101972.66;5001646;28;45341;-51
2022/04/14 08:52:26;;;;;;;;;28.50;27.00;;;;;17.47;63.35;101971.28;5001796;28;45420;-54
2022/04/14 08:54:54;;;;;;;;;37.50;30.25;;;;;17.56;63.58;101969.78;4998048;28;45435;-53
2022/04/14 08:57:21;;;;;;;;;32.00;26.50;;;;;17.65;63.06;101965.63;4986557;28;45482;-50
2022/04/14 08:59:50;;;;;;;;;27.00;24.00;;;;;17.70;62.94;101968.84;4988158;28;45432;-50
2022/04/14 09:02:19;;;;;;;;;28.50;22.50;;;;;17.76;62.56;101966.63;5001313;28;45504;-53
2022/04/14 09:04:45;;;;;;;;;30.50;27.00;;;;;17.84;62.61;101969.59;5001240;28;46066;-49
2022/04/14 09:07:11;;;;;;;;;34.50;27.25;;;;;17.89;62.56;101969.28;5001776;28;45226;-53
2022/04/14 09:09:38;;;;;;;;;23.25;22.50;;;;;18.00;62.34;101972.03;4989466;28;45229;-52
2022/04/14 09:12:05;;;;;;;;;30.00;26.50;;;;;18.10;61.69;101972.25;5000519;28;45729;-50
2022/04/14 09:14:34;;;;;;;;;25.50;23.50;;;;;18.10;61.45;101973.09;5001621;28;45416;-53
2022/04/14 09:17:04;;;;;;;;;30.00;26.25;;;;;18.18;61.46;101969.03;4986091;28;45443;-50
2022/04/14 09:19:33;;;;;;;;;27.50;21.00;;;;;18.24;61.43;101968.56;5001705;28;45329;-50
2022/04/14 09:22:09;;;;;;;;;23.25;21.25;;;;;18.26;61.52;101966.66;5001908;28;45258;-51
2022/04/14 09:24:44;;;;;;;;;27.75;23.00;;;;;18.34;61.32;101956.31;4983245;28;45726;-53
2022/04/14 09:27:25;;;;;;;;;24.75;24.00;;;;;18.45;61.25;101956.34;5000978;28;45294;-52
2022/04/14 09:29:51;;;;;;;;;31.25;25.00;;;;;18.51;60.42;101963.91;5001172;28;45334;-53
2022/04/14 09:32:31;;;;;;;;;21.50;18.00;;;;;18.55;59.90;101962.72;5001414;28;45463;-52
2022/04/14 09:34:58;;;;;;;;;24.00;21.00;;;;;18.62;60.42;101965.78;4989403;28;45305;-51
2022/04/14 09:37:25;;;;;;;;;25.75;19.50;;;;;18.72;60.48;101960.66;5001277;28;45366;-51
2022/04/14 09:40:08;;;;;;;;;27.50;25.50;;;;;18.82;60.05;101961.69;5001449;28;45431;-54
2022/04/14 09:42:36;;;;;;;;;29.00;23.00;;;;;18.88;60.06;101955.88;5001236;28;45506;-53
2022/04/14 09:45:18;;;;;;;;;27.25;22.75;;;;;18.95;59.99;101952.63;5001156;28;45344;-53
2022/04/14 09:47:44;;;;;;;;;23.50;22.75;;;;;18.98;59.43;101950.72;5001524;28;45892;-49
2022/04/14 09:50:35;;;;;;;;;27.75;21.75;;;;;19.07;59.34;101944.66;5001128;28;45322;-50
2022/04/14 09:53:10;;;;;;;;;25.25;23.75;;;;;19.15;59.81;101948.47;5001102;28;45183;-49
2022/04/14 09:55:40;;;;;;;;;25.00;22.75;;;;;19.20;59.70;101945.44;5000775;28;45381;-50
2022/04/14 09:58:17;;;;;;;;;25.75;21.00;;;;;19.23;58.18;101951.41;5000782;28;45516;-52
2022/04/14 10:01:04;;;;;;;;;19.75;17.25;;;;;19.27;58.25;101953.81;4988653;28;45491;-49
2022/04/14 10:03:31;;;;;;;;;22.25;17.75;;;;;19.32;58.45;101957.00;4997595;28;45348;-51
2022/04/14 10:05:59;;;;;;;;;16.75;14.75;;;;;19.40;58.01;101957.25;5000921;28;45331;-52
2022/04/14 10:08:25;;;;;;;;;15.50;15.00;;;;;19.45;57.64;101955.94;4997875;28;45433;-53
2022/04/14 10:11:05;;;;;;;;;32.50;22.50;;;;;19.49;57.24;101953.88;4989924;28;45366;-50
2022/04/14 10:13:38;;;;;;;;;20.00;17.00;;;;;19.53;57.00;101950.84;5000702;28;45384;-53
2022/04/14 10:16:05;;;;;;;;;21.25;19.00;;;;;19.58;57.21;101947.84;5000537;28;46251;-52
2022/04/14 10:18:31;;;;;;;;;15.50;14.25;;;;;19.65;56.15;101946.41;4998089;28;45562;-54
2022/04/14 10:20:57;;;;;;;;;15.50;14.00;;;;;19.67;55.93;101944.47;5000717;28;45242;-53
2022/04/14 10:23:26;;;;;;;;;11.75;10.50;;;;;19.71;55.42;101945.06;5000453;28;45247;-53
2022/04/14 10:25:53;;;;;;;;;16.50;13.00;;;;;19.76;54.86;101945.56;5000541;28;45365;-51
2022/04/14 10:28:20;;;;;;;;;10.00;8.25;;;;;19.83;54.21;101941.44;4981373;28;45234;-52
2022/04/14 10:30:49;;;;;;;;;15.00;14.00;;;;;19.88;54.69;101935.72;4993993;28;45268;-50
2022/04/14 10:33:14;;;;;;;;;15.50;12.50;;;;;19.90;55.06;101939.97;5000519;28;45429;-51
2022/04/14 10:35:40;;;;;;;;;18.00;14.50;;;;;19.95;55.04;101937.78;5000059;28;45887;-52
2022/04/14 10:38:19;;;;;;;;;11.75;10.25;;;;;20.02;53.83;101939.00;5000475;28;45315;-52
2022/04/14 10:41:13;;;;;;;;;13.00;11.75;;;;;20.08;54.05;101945.69;5000334;28;45385;-53
2022/04/14 10:43:41;;;;;;;;;9.50;7.75;;;;;20.13;53.15;101935.44;4991738;28;45554;-52
2022/04/14 10:46:06;;;;;;;;;10.00;10.00;;;;;20.16;53.17;101932.53;5000274;28;45217;-52
2022/04/14 10:48:38;;;;;;;;;10.50;9.25;;;;;20.18;52.53;101935.09;5000432;28;45247;-54
2022/04/14 10:51:23;;;;;;;;;8.25;8.25;;;;;20.23;52.02;101933.75;5000488;28;45332;-50
2022/04/14 10:53:50;;;;;;;;;9.25;7.25;;;;;20.28;51.84;101936.03;5000063;28;45298;-52
2022/04/14 10:56:34;;;;;;;;;8.75;8.75;;;;;20.29;51.58;101933.22;5000254;28;45281;-50
2022/04/14 10:59:00;;;;;;;;;7.75;7.25;;;;;20.37;51.55;101932.59;4987601;28;45257;-52
2022/04/14 11:01:48;;;;;;;;;10.25;6.75;;;;;20.48;51.29;101931.78;4999982;28;45170;-48
2022/04/14 11:04:36;;;;;;;;;11.00;7.00;;;;;20.48;50.76;101932.63;5000388;28;45434;-51
2022/04/14 11:07:12;;;;;;;;;9.00;7.25;;;;;20.59;51.62;101932.56;4986965;28;46231;-53
2022/04/14 11:09:38;;;;;;;;;8.75;8.00;;;;;20.69;51.17;101937.16;4987386;28;45461;-51